sensor_id;sensor_type;location;lat;lon;timestamp;pressure;altitude;pressure_sealevel;temperature;humidity
71105;BME280;58760;48.716;8.962;2024-01-30T00:00:37;97910.56;;;1.77;100.00
71105;BME280;58760;48.716;8.962;2024-01-30T00:03:03;97910.22;;;1.83;100.00
71105;BME280;58760;48.716;8.962;2024-01-30T00:05:28;97908.81;;;1.78;100.00
71105;BME280;58760;48.716;8.962;2024-01-30T00:07:53;97906.03;;;1.65;100.00
71105;BME280;58760;48.716;8.962;2024-01-30T00:10:19;97910.75;;;1.74;100.00
71105;BME280;58760;48.716;8.962;2024-01-30T00:12:44;97905.34;;;1.77;100.00
71105;BME280;58760;48.716;8.962;2024-01-30T00:15:10;97908.28;;;1.71;100.00
71105;BME280;58760;48.716;8.962;2024-01-30T00:17:38;97913.13;;;1.79;100.00
71105;BME280;58760;48.716;8.962;2024-01-30T00:20:04;97914.94;;;1.92;100.00
71105;BME280;58760;48.716;8.962;2024-01-30T00:22:34;97917.72;;;2.05;100.00
71105;BME280;58760;48.716;8.962;2024-01-30T00:25:00;97915.53;;;1.97;100.00
71105;BME280;58760;48.716;8.962;2024-01-30T00:27:26;97913.44;;;1.88;100.00
71105;BME280;58760;48.716;8.962;2024-01-30T00:29:52;97917.06;;;2.01;100.00
71105;BME280;58760;48.716;8.962;2024-01-30T00:32:18;97912.00;;;2.28;100.00
71105;BME280;58760;48.716;8.962;2024-01-30T00:34:44;97911.72;;;2.48;100.00
71105;BME280;58760;48.716;8.962;2024-01-30T00:37:10;97916.16;;;2.62;100.00
71105;BME280;58760;48.716;8.962;2024-01-30T00:39:35;97909.22;;;2.61;100.00
71105;BME280;58760;48.716;8.962;2024-01-30T00:42:00;97898.56;;;2.64;100.00
71105;BME280;58760;48.716;8.962;2024-01-30T00:44:26;97907.44;;;2.61;100.00
71105;BME280;58760;48.716;8.962;2024-01-30T00:46:51;97903.78;;;2.50;100.00
71105;BME280;58760;48.716;8.962;2024-01-30T00:49:17;97898.13;;;2.42;100.00
71105;BME280;58760;48.716;8.962;2024-01-30T00:51:42;97907.38;;;2.33;100.00
71105;BME280;58760;48.716;8.962;2024-01-30T00:54:07;97899.81;;;2.13;100.00
71105;BME280;58760;48.716;8.962;2024-01-30T00:56:33;97897.03;;;2.00;100.00
71105;BME280;58760;48.716;8.962;2024-01-30T00:58:58;97895.69;;;1.93;100.00
71105;BME280;58760;48.716;8.962;2024-01-30T01:01:24;97897.28;;;1.96;100.00
71105;BME280;58760;48.716;8.962;2024-01-30T01:03:49;97895.88;;;1.90;100.00
71105;BME280;58760;48.716;8.962;2024-01-30T01:06:14;97899.59;;;1.86;100.00
71105;BME280;58760;48.716;8.962;2024-01-30T01:08:40;97901.09;;;1.90;100.00
71105;BME280;58760;48.716;8.962;2024-01-30T01:11:06;97901.13;;;1.75;100.00
71105;BME280;58760;48.716;8.962;2024-01-30T01:13:31;97899.84;;;1.66;100.00
71105;BME280;58760;48.716;8.962;2024-01-30T01:15:56;97898.91;;;1.83;100.00
71105;BME280;58760;48.716;8.962;2024-01-30T01:18:22;97904.22;;;1.97;100.00
71105;BME280;58760;48.716;8.962;2024-01-30T01:20:47;97909.34;;;1.98;100.00
71105;BME280;58760;48.716;8.962;2024-01-30T01:23:13;97917.81;;;2.03;100.00
71105;BME280;58760;48.716;8.962;2024-01-30T01:25:38;97906.09;;;1.95;100.00
71105;BME280;58760;48.716;8.962;2024-01-30T01:28:04;97901.63;;;1.81;100.00
71105;BME280;58760;48.716;8.962;2024-01-30T01:30:29;97906.78;;;1.67;100.00
71105;BME280;58760;48.716;8.962;2024-01-30T01:32:55;97903.47;;;1.64;100.00
71105;BME280;58760;48.716;8.962;2024-01-30T01:35:22;97901.88;;;1.61;100.00
71105;BME280;58760;48.716;8.962;2024-01-30T01:37:50;97906.25;;;1.45;100.00
71105;BME280;58760;48.716;8.962;2024-01-30T01:40:22;97909.88;;;1.42;100.00
71105;BME280;58760;48.716;8.962;2024-01-30T01:42:47;97911.88;;;1.37;100.00
71105;BME280;58760;48.716;8.962;2024-01-30T01:45:13;97903.47;;;1.32;100.00
71105;BME280;58760;48.716;8.962;2024-01-30T01:47:39;97914.44;;;1.39;100.00
71105;BME280;58760;48.716;8.962;2024-01-30T01:50:04;97911.66;;;1.42;100.00
71105;BME280;58760;48.716;8.962;2024-01-30T01:52:30;97905.50;;;1.43;100.00
71105;BME280;58760;48.716;8.962;2024-01-30T01:54:56;97907.00;;;1.31;100.00
71105;BME280;58760;48.716;8.962;2024-01-30T01:57:21;97906.97;;;1.16;100.00
71105;BME280;58760;48.716;8.962;2024-01-30T01:59:47;97902.75;;;1.13;100.00
71105;BME280;58760;48.716;8.962;2024-01-30T02:02:14;97900.84;;;1.17;100.00
71105;BME280;58760;48.716;8.962;2024-01-30T02:04:41;97907.84;;;1.47;100.00
71105;BME280;58760;48.716;8.962;2024-01-30T02:07:07;97911.25;;;1.65;100.00
71105;BME280;58760;48.716;8.962;2024-01-30T02:09:32;97903.97;;;1.70;100.00
71105;BME280;58760;48.716;8.962;2024-01-30T02:11:58;97904.84;;;1.55;100.00
71105;BME280;58760;48.716;8.962;2024-01-30T02:14:23;97907.50;;;1.53;100.00
71105;BME280;58760;48.716;8.962;2024-01-30T02:16:48;97907.69;;;1.50;100.00
71105;BME280;58760;48.716;8.962;2024-01-30T02:19:14;97905.34;;;1.46;100.00
71105;BME280;58760;48.716;8.962;2024-01-30T02:21:39;97906.59;;;1.39;100.00
71105;BME280;58760;48.716;8.962;2024-01-30T02:24:05;97905.81;;;1.37;100.00
71105;BME280;58760;48.716;8.962;2024-01-30T02:26:30;97906.59;;;1.39;100.00
71105;BME280;58760;48.716;8.962;2024-01-30T02:28:56;97910.13;;;1.38;100.00
71105;BME280;58760;48.716;8.962;2024-01-30T02:31:21;97916.59;;;1.31;100.00
71105;BME280;58760;48.716;8.962;2024-01-30T02:33:47;97917.44;;;1.31;100.00
71105;BME280;58760;48.716;8.962;2024-01-30T02:36:12;97918.69;;;1.24;100.00
71105;BME280;58760;48.716;8.962;2024-01-30T02:38:38;97909.34;;;1.20;100.00
71105;BME280;58760;48.716;8.962;2024-01-30T02:41:04;97912.03;;;1.19;100.00
71105;BME280;58760;48.716;8.962;2024-01-30T02:43:29;97914.59;;;1.20;100.00
71105;BME280;58760;48.716;8.962;2024-01-30T02:45:54;97912.38;;;1.13;100.00
71105;BME280;58760;48.716;8.962;2024-01-30T02:48:20;97906.13;;;1.15;100.00
71105;BME280;58760;48.716;8.962;2024-01-30T02:50:45;97908.97;;;1.11;100.00
71105;BME280;58760;48.716;8.962;2024-01-30T02:53:12;97908.22;;;1.09;100.00
71105;BME280;58760;48.716;8.962;2024-01-30T02:55:37;97914.16;;;0.95;100.00
71105;BME280;58760;48.716;8.962;2024-01-30T02:58:02;97910.47;;;0.99;100.00
71105;BME280;58760;48.716;8.962;2024-01-30T03:00:28;97912.78;;;0.88;100.00
71105;BME280;58760;48.716;8.962;2024-01-30T03:02:53;97910.59;;;0.80;100.00
71105;BME280;58760;48.716;8.962;2024-01-30T03:05:19;97905.38;;;0.80;100.00
71105;BME280;58760;48.716;8.962;2024-01-30T03:07:44;97906.47;;;0.92;100.00
71105;BME280;58760;48.716;8.962;2024-01-30T03:10:09;97908.72;;;0.99;100.00
71105;BME280;58760;48.716;8.962;2024-01-30T03:12:35;97913.41;;;0.93;100.00
71105;BME280;58760;48.716;8.962;2024-01-30T03:15:00;97919.97;;;0.84;100.00
71105;BME280;58760;48.716;8.962;2024-01-30T03:17:26;97906.66;;;0.89;100.00
71105;BME280;58760;48.716;8.962;2024-01-30T03:19:51;97911.03;;;0.88;100.00
71105;BME280;58760;48.716;8.962;2024-01-30T03:22:17;97912.84;;;0.71;100.00
71105;BME280;58760;48.716;8.962;2024-01-30T03:24:42;97908.91;;;0.62;100.00
71105;BME280;58760;48.716;8.962;2024-01-30T03:27:08;97909.75;;;0.63;100.00
71105;BME280;58760;48.716;8.962;2024-01-30T03:29:34;97922.91;;;0.61;100.00
71105;BME280;58760;48.716;8.962;2024-01-30T03:31:59;97915.28;;;0.57;100.00
71105;BME280;58760;48.716;8.962;2024-01-30T03:34:24;97919.66;;;0.56;100.00
71105;BME280;58760;48.716;8.962;2024-01-30T03:36:50;97915.53;;;0.52;100.00
71105;BME280;58760;48.716;8.962;2024-01-30T03:39:15;97916.19;;;0.56;100.00
71105;BME280;58760;48.716;8.962;2024-01-30T03:41:44;97913.38;;;0.60;100.00
71105;BME280;58760;48.716;8.962;2024-01-30T03:44:09;97914.59;;;0.53;100.00
71105;BME280;58760;48.716;8.962;2024-01-30T03:46:35;97909.25;;;0.39;100.00
71105;BME280;58760;48.716;8.962;2024-01-30T03:49:00;97919.53;;;0.42;100.00
71105;BME280;58760;48.716;8.962;2024-01-30T03:51:25;97916.66;;;0.46;100.00
71105;BME280;58760;48.716;8.962;2024-01-30T03:53:51;97914.00;;;0.48;100.00
71105;BME280;58760;48.716;8.962;2024-01-30T03:56:16;97918.38;;;0.47;100.00
71105;BME280;58760;48.716;8.962;2024-01-30T03:58:41;97910.75;;;0.43;100.00
71105;BME280;58760;48.716;8.962;2024-01-30T04:01:07;97917.53;;;0.47;100.00
71105;BME280;58760;48.716;8.962;2024-01-30T04:03:33;97917.53;;;0.47;100.00
71105;BME280;58760;48.716;8.962;2024-01-30T04:05:58;97916.13;;;0.40;100.00
71105;BME280;58760;48.716;8.962;2024-01-30T04:08:23;97917.81;;;0.41;100.00
71105;BME280;58760;48.716;8.962;2024-01-30T04:10:49;97910.47;;;0.32;100.00
71105;BME280;58760;48.716;8.962;2024-01-30T04:13:14;97903.31;;;0.35;100.00
71105;BME280;58760;48.716;8.962;2024-01-30T04:15:40;97899.47;;;0.42;100.00
71105;BME280;58760;48.716;8.962;2024-01-30T04:18:05;97906.63;;;0.39;100.00
71105;BME280;58760;48.716;8.962;2024-01-30T04:20:30;97914.03;;;0.29;100.00
71105;BME280;58760;48.716;8.962;2024-01-30T04:22:56;97907.94;;;0.47;100.00
71105;BME280;58760;48.716;8.962;2024-01-30T04:25:21;97913.38;;;0.60;100.00
71105;BME280;58760;48.716;8.962;2024-01-30T04:27:47;97911.81;;;0.56;100.00
71105;BME280;58760;48.716;8.962;2024-01-30T04:30:12;97903.69;;;0.62;100.00
71105;BME280;58760;48.716;8.962;2024-01-30T04:32:38;97903.50;;;0.65;100.00
71105;BME280;58760;48.716;8.962;2024-01-30T04:35:03;97913.53;;;0.57;100.00
71105;BME280;58760;48.716;8.962;2024-01-30T04:37:29;97908.16;;;0.60;100.00
71105;BME280;58760;48.716;8.962;2024-01-30T04:39:54;97906.97;;;0.66;100.00
71105;BME280;58760;48.716;8.962;2024-01-30T04:42:20;97908.34;;;0.73;100.00
71105;BME280;58760;48.716;8.962;2024-01-30T04:44:46;97911.22;;;0.68;100.00
71105;BME280;58760;48.716;8.962;2024-01-30T04:47:11;97911.28;;;0.67;100.00
71105;BME280;58760;48.716;8.962;2024-01-30T04:49:38;97914.81;;;0.66;100.00
71105;BME280;58760;48.716;8.962;2024-01-30T04:52:05;97916.13;;;0.57;100.00
71105;BME280;58760;48.716;8.962;2024-01-30T04:54:31;97910.53;;;0.47;100.00
71105;BME280;58760;48.716;8.962;2024-01-30T04:56:56;97915.81;;;0.46;100.00
71105;BME280;58760;48.716;8.962;2024-01-30T04:59:21;97915.00;;;0.45;100.00
71105;BME280;58760;48.716;8.962;2024-01-30T05:01:47;97907.75;;;0.33;100.00
71105;BME280;58760;48.716;8.962;2024-01-30T05:04:13;97916.91;;;0.42;100.00
71105;BME280;58760;48.716;8.962;2024-01-30T05:06:38;97909.22;;;0.56;100.00
71105;BME280;58760;48.716;8.962;2024-01-30T05:09:03;97919.34;;;0.62;100.00
71105;BME280;58760;48.716;8.962;2024-01-30T05:11:30;97914.13;;;0.62;100.00
71105;BME280;58760;48.716;8.962;2024-01-30T05:13:56;97921.28;;;0.59;100.00
71105;BME280;58760;48.716;8.962;2024-01-30T05:16:21;97919.97;;;0.50;100.00
71105;BME280;58760;48.716;8.962;2024-01-30T05:18:46;97912.59;;;0.41;100.00
71105;BME280;58760;48.716;8.962;2024-01-30T05:21:12;97913.53;;;0.40;100.00
71105;BME280;58760;48.716;8.962;2024-01-30T05:23:37;97909.38;;;0.36;100.00
71105;BME280;58760;48.716;8.962;2024-01-30T05:26:03;97915.53;;;0.35;100.00
71105;BME280;58760;48.716;8.962;2024-01-30T05:28:29;97917.13;;;0.37;100.00
71105;BME280;58760;48.716;8.962;2024-01-30T05:30:56;97914.69;;;0.34;100.00
71105;BME280;58760;48.716;8.962;2024-01-30T05:33:21;97913.97;;;0.31;100.00
71105;BME280;58760;48.716;8.962;2024-01-30T05:35:46;97915.53;;;0.35;100.00
71105;BME280;58760;48.716;8.962;2024-01-30T05:38:12;97920.91;;;0.32;100.00
71105;BME280;58760;48.716;8.962;2024-01-30T05:40:38;97915.84;;;0.29;100.00
71105;BME280;58760;48.716;8.962;2024-01-30T05:43:03;97921.97;;;0.28;100.00
71105;BME280;58760;48.716;8.962;2024-01-30T05:45:28;97927.34;;;0.25;100.00
71105;BME280;58760;48.716;8.962;2024-01-30T05:47:54;97926.59;;;0.23;100.00
71105;BME280;58760;48.716;8.962;2024-01-30T05:50:20;97922.56;;;0.16;100.00
71105;BME280;58760;48.716;8.962;2024-01-30T05:52:48;97927.81;;;0.16;100.00
71105;BME280;58760;48.716;8.962;2024-01-30T05:55:13;97928.72;;;0.15;100.00
71105;BME280;58760;48.716;8.962;2024-01-30T05:57:39;97933.16;;;0.13;100.00
71105;BME280;58760;48.716;8.962;2024-01-30T06:00:05;97931.63;;;0.09;100.00
71105;BME280;58760;48.716;8.962;2024-01-30T06:02:31;97933.44;;;0.07;100.00
71105;BME280;58760;48.716;8.962;2024-01-30T06:04:56;97934.78;;;0.15;100.00
71105;BME280;58760;48.716;8.962;2024-01-30T06:07:22;97931.25;;;0.16;100.00
71105;BME280;58760;48.716;8.962;2024-01-30T06:09:47;97928.66;;;0.16;100.00
71105;BME280;58760;48.716;8.962;2024-01-30T06:12:13;97936.38;;;0.18;100.00
71105;BME280;58760;48.716;8.962;2024-01-30T06:14:38;97941.41;;;0.22;100.00
71105;BME280;58760;48.716;8.962;2024-01-30T06:17:04;97938.09;;;0.19;100.00
71105;BME280;58760;48.716;8.962;2024-01-30T06:19:30;97936.00;;;0.08;100.00
71105;BME280;58760;48.716;8.962;2024-01-30T06:21:55;97930.91;;;0.05;100.00
71105;BME280;58760;48.716;8.962;2024-01-30T06:24:20;97944.56;;;0.10;100.00
71105;BME280;58760;48.716;8.962;2024-01-30T06:26:46;97946.22;;;0.13;100.00
71105;BME280;58760;48.716;8.962;2024-01-30T06:29:11;97941.97;;;0.10;100.00
71105;BME280;58760;48.716;8.962;2024-01-30T06:31:40;97940.66;;;0.02;100.00
71105;BME280;58760;48.716;8.962;2024-01-30T06:34:06;97938.25;;;-0.03;100.00
71105;BME280;58760;48.716;8.962;2024-01-30T06:36:32;97938.41;;;-0.06;100.00
71105;BME280;58760;48.716;8.962;2024-01-30T06:38:57;97932.78;;;-0.16;100.00
71105;BME280;58760;48.716;8.962;2024-01-30T06:41:22;97927.94;;;-0.23;100.00
71105;BME280;58760;48.716;8.962;2024-01-30T06:43:49;97932.47;;;-0.27;100.00
71105;BME280;58760;48.716;8.962;2024-01-30T06:46:14;97943.34;;;-0.19;100.00
71105;BME280;58760;48.716;8.962;2024-01-30T06:48:40;97940.03;;;-0.04;100.00
71105;BME280;58760;48.716;8.962;2024-01-30T06:51:06;97939.56;;;-0.12;100.00
71105;BME280;58760;48.716;8.962;2024-01-30T06:53:32;97944.22;;;-0.18;100.00
71105;BME280;58760;48.716;8.962;2024-01-30T06:55:57;97947.06;;;-0.06;100.00
71105;BME280;58760;48.716;8.962;2024-01-30T06:58:23;97945.41;;;-0.07;100.00
71105;BME280;58760;48.716;8.962;2024-01-30T07:00:48;97946.56;;;0.05;100.00
71105;BME280;58760;48.716;8.962;2024-01-30T07:03:13;97944.53;;;0.12;100.00
71105;BME280;58760;48.716;8.962;2024-01-30T07:05:39;97947.81;;;0.15;100.00
71105;BME280;58760;48.716;8.962;2024-01-30T07:08:04;97962.47;;;0.18;100.00
71105;BME280;58760;48.716;8.962;2024-01-30T07:10:30;97956.25;;;0.20;100.00
71105;BME280;58760;48.716;8.962;2024-01-30T07:12:56;97954.84;;;0.32;100.00
71105;BME280;58760;48.716;8.962;2024-01-30T07:15:22;97956.75;;;0.28;100.00
71105;BME280;58760;48.716;8.962;2024-01-30T07:17:47;97950.06;;;0.23;100.00
71105;BME280;58760;48.716;8.962;2024-01-30T07:20:13;97958.56;;;0.26;100.00
71105;BME280;58760;48.716;8.962;2024-01-30T07:22:39;97952.59;;;0.24;100.00
71105;BME280;58760;48.716;8.962;2024-01-30T07:25:05;97945.31;;;-0.05;100.00
71105;BME280;58760;48.716;8.962;2024-01-30T07:27:31;97941.00;;;0.13;100.00
71105;BME280;58760;48.716;8.962;2024-01-30T07:29:56;97948.69;;;0.16;100.00
71105;BME280;58760;48.716;8.962;2024-01-30T07:32:21;97944.84;;;0.23;100.00
71105;BME280;58760;48.716;8.962;2024-01-30T07:34:47;97944.78;;;0.41;100.00
71105;BME280;58760;48.716;8.962;2024-01-30T07:37:12;97947.91;;;0.65;100.00
71105;BME280;58760;48.716;8.962;2024-01-30T07:39:40;97951.44;;;0.98;100.00
71105;BME280;58760;48.716;8.962;2024-01-30T07:42:06;97950.66;;;1.14;100.00
71105;BME280;58760;48.716;8.962;2024-01-30T07:44:31;97947.88;;;1.17;100.00
71105;BME280;58760;48.716;8.962;2024-01-30T07:46:56;97945.44;;;0.96;100.00
71105;BME280;58760;48.716;8.962;2024-01-30T07:49:22;97940.03;;;0.84;100.00
71105;BME280;58760;48.716;8.962;2024-01-30T07:51:47;97938.81;;;1.07;100.00
71105;BME280;58760;48.716;8.962;2024-01-30T07:54:13;97938.94;;;1.21;100.00
71105;BME280;58760;48.716;8.962;2024-01-30T07:56:41;97942.50;;;1.20;100.00
71105;BME280;58760;48.716;8.962;2024-01-30T07:59:10;97941.09;;;1.30;100.00
71105;BME280;58760;48.716;8.962;2024-01-30T08:01:36;97952.06;;;1.36;100.00
71105;BME280;58760;48.716;8.962;2024-01-30T08:04:02;97948.50;;;1.53;100.00
71105;BME280;58760;48.716;8.962;2024-01-30T08:06:27;97945.78;;;1.56;100.00
71105;BME280;58760;48.716;8.962;2024-01-30T08:08:52;97947.53;;;1.55;100.00
71105;BME280;58760;48.716;8.962;2024-01-30T08:11:20;97941.28;;;1.58;100.00
71105;BME280;58760;48.716;8.962;2024-01-30T08:13:45;97932.91;;;1.51;100.00
71105;BME280;58760;48.716;8.962;2024-01-30T08:16:11;97927.13;;;1.62;100.00
71105;BME280;58760;48.716;8.962;2024-01-30T08:18:36;97930.81;;;1.89;100.00
71105;BME280;58760;48.716;8.962;2024-01-30T08:21:01;97930.38;;;2.13;100.00
71105;BME280;58760;48.716;8.962;2024-01-30T08:23:27;97928.41;;;2.32;100.00
71105;BME280;58760;48.716;8.962;2024-01-30T08:25:52;97921.38;;;2.32;100.00
71105;BME280;58760;48.716;8.962;2024-01-30T08:28:18;97913.03;;;2.26;100.00
71105;BME280;58760;48.716;8.962;2024-01-30T08:30:43;97910.22;;;2.15;100.00
71105;BME280;58760;48.716;8.962;2024-01-30T08:33:08;97904.09;;;2.30;100.00
71105;BME280;58760;48.716;8.962;2024-01-30T08:35:34;97911.63;;;2.50;100.00
71105;BME280;58760;48.716;8.962;2024-01-30T08:37:59;97912.06;;;2.72;100.00
71105;BME280;58760;48.716;8.962;2024-01-30T08:40:25;97920.25;;;2.96;100.00
71105;BME280;58760;48.716;8.962;2024-01-30T08:42:50;97916.50;;;3.14;100.00
71105;BME280;58760;48.716;8.962;2024-01-30T08:45:16;97910.25;;;3.31;100.00
71105;BME280;58760;48.716;8.962;2024-01-30T08:47:41;97902.34;;;3.16;100.00
71105;BME280;58760;48.716;8.962;2024-01-30T08:50:07;97896.56;;;3.11;100.00
71105;BME280;58760;48.716;8.962;2024-01-30T08:52:32;97894.13;;;3.23;100.00
71105;BME280;58760;48.716;8.962;2024-01-30T08:54:59;97891.31;;;3.40;100.00
71105;BME280;58760;48.716;8.962;2024-01-30T08:57:24;97891.69;;;3.34;100.00
71105;BME280;58760;48.716;8.962;2024-01-30T08:59:53;97886.44;;;3.75;100.00
71105;BME280;58760;48.716;8.962;2024-01-30T09:02:19;97892.22;;;3.94;100.00
71105;BME280;58760;48.716;8.962;2024-01-30T09:04:44;97895.81;;;3.93;100.00
71105;BME280;58760;48.716;8.962;2024-01-30T09:07:09;97898.53;;;4.18;100.00
71105;BME280;58760;48.716;8.962;2024-01-30T09:09:35;97895.44;;;4.38;100.00
71105;BME280;58760;48.716;8.962;2024-01-30T09:12:00;97900.22;;;4.58;100.00
71105;BME280;58760;48.716;8.962;2024-01-30T09:14:32;97894.78;;;4.74;100.00
71105;BME280;58760;48.716;8.962;2024-01-30T09:16:57;97899.19;;;4.86;100.00
71105;BME280;58760;48.716;8.962;2024-01-30T09:19:23;97892.16;;;4.99;100.00
71105;BME280;58760;48.716;8.962;2024-01-30T09:21:48;97894.47;;;5.04;100.00
71105;BME280;58760;48.716;8.962;2024-01-30T09:24:13;97900.47;;;4.93;100.00
71105;BME280;58760;48.716;8.962;2024-01-30T09:26:38;97903.50;;;4.87;100.00
71105;BME280;58760;48.716;8.962;2024-01-30T09:29:04;97896.97;;;4.80;100.00
71105;BME280;58760;48.716;8.962;2024-01-30T09:31:29;97901.72;;;5.13;100.00
71105;BME280;58760;48.716;8.962;2024-01-30T09:33:55;97904.97;;;5.42;100.00
71105;BME280;58760;48.716;8.962;2024-01-30T09:36:20;97897.56;;;5.59;100.00
71105;BME280;58760;48.716;8.962;2024-01-30T09:38:46;97895.19;;;5.80;100.00
71105;BME280;58760;48.716;8.962;2024-01-30T09:41:12;97904.38;;;5.87;100.00
71105;BME280;58760;48.716;8.962;2024-01-30T09:43:38;97897.41;;;5.86;100.00
71105;BME280;58760;48.716;8.962;2024-01-30T09:46:08;97889.94;;;5.80;100.00
71105;BME280;58760;48.716;8.962;2024-01-30T09:48:37;97896.59;;;5.73;100.00
71105;BME280;58760;48.716;8.962;2024-01-30T09:51:03;97891.00;;;5.77;100.00
71105;BME280;58760;48.716;8.962;2024-01-30T09:53:28;97893.88;;;5.62;100.00
71105;BME280;58760;48.716;8.962;2024-01-30T09:55:54;97891.25;;;5.62;100.00
71105;BME280;58760;48.716;8.962;2024-01-30T09:58:19;97901.38;;;5.55;100.00
71105;BME280;58760;48.716;8.962;2024-01-30T10:00:45;97904.38;;;5.74;100.00
71105;BME280;58760;48.716;8.962;2024-01-30T10:03:10;97896.75;;;5.59;100.00
71105;BME280;58760;48.716;8.962;2024-01-30T10:05:36;97901.13;;;5.71;100.00
71105;BME280;58760;48.716;8.962;2024-01-30T10:08:05;97900.47;;;5.93;100.00
71105;BME280;58760;48.716;8.962;2024-01-30T10:10:31;97899.97;;;5.88;100.00
71105;BME280;58760;48.716;8.962;2024-01-30T10:12:56;97894.03;;;5.84;100.00
71105;BME280;58760;48.716;8.962;2024-01-30T10:15:22;97899.53;;;6.17;100.00
71105;BME280;58760;48.716;8.962;2024-01-30T10:17:47;97898.66;;;6.41;100.00
71105;BME280;58760;48.716;8.962;2024-01-30T10:20:13;97903.84;;;6.77;100.00
71105;BME280;58760;48.716;8.962;2024-01-30T10:22:40;97898.16;;;7.05;100.00
71105;BME280;58760;48.716;8.962;2024-01-30T10:25:07;97887.16;;;7.33;100.00
71105;BME280;58760;48.716;8.962;2024-01-30T10:27:33;97883.44;;;7.47;100.00
71105;BME280;58760;48.716;8.962;2024-01-30T10:29:58;97880.53;;;7.61;100.00
71105;BME280;58760;48.716;8.962;2024-01-30T10:32:25;97881.22;;;7.74;100.00
71105;BME280;58760;48.716;8.962;2024-01-30T10:34:50;97868.63;;;7.89;100.00
71105;BME280;58760;48.716;8.962;2024-01-30T10:37:16;97876.50;;;8.00;100.00
71105;BME280;58760;48.716;8.962;2024-01-30T10:39:44;97875.53;;;8.12;100.00
71105;BME280;58760;48.716;8.962;2024-01-30T10:42:17;97868.25;;;8.36;100.00
71105;BME280;58760;48.716;8.962;2024-01-30T10:45:09;97872.16;;;8.53;100.00
71105;BME280;58760;48.716;8.962;2024-01-30T10:47:36;97867.16;;;8.71;100.00
71105;BME280;58760;48.716;8.962;2024-01-30T10:50:04;97854.41;;;8.85;100.00
71105;BME280;58760;48.716;8.962;2024-01-30T10:52:31;97856.03;;;8.98;100.00
71105;BME280;58760;48.716;8.962;2024-01-30T10:54:58;97853.19;;;9.10;100.00
71105;BME280;58760;48.716;8.962;2024-01-30T10:57:24;97846.47;;;9.06;100.00
71105;BME280;58760;48.716;8.962;2024-01-30T10:59:51;97840.13;;;8.98;100.00
71105;BME280;58760;48.716;8.962;2024-01-30T11:02:18;97848.75;;;8.90;100.00
71105;BME280;58760;48.716;8.962;2024-01-30T11:04:45;97852.56;;;8.97;100.00
71105;BME280;58760;48.716;8.962;2024-01-30T11:07:15;97846.75;;;9.03;100.00
71105;BME280;58760;48.716;8.962;2024-01-30T11:09:48;97849.81;;;9.08;100.00
71105;BME280;58760;48.716;8.962;2024-01-30T11:12:13;97853.94;;;9.22;100.00
71105;BME280;58760;48.716;8.962;2024-01-30T11:14:39;97847.72;;;9.32;100.00
71105;BME280;58760;48.716;8.962;2024-01-30T11:17:05;97847.81;;;9.52;100.00
71105;BME280;58760;48.716;8.962;2024-01-30T11:19:32;97844.41;;;9.80;100.00
71105;BME280;58760;48.716;8.962;2024-01-30T11:21:58;97848.47;;;9.93;100.00
71105;BME280;58760;48.716;8.962;2024-01-30T11:24:24;97841.78;;;9.99;100.00
71105;BME280;58760;48.716;8.962;2024-01-30T11:26:55;97845.44;;;9.98;100.00
71105;BME280;58760;48.716;8.962;2024-01-30T11:29:24;97837.47;;;9.98;100.00
71105;BME280;58760;48.716;8.962;2024-01-30T11:31:57;97839.28;;;9.97;100.00
71105;BME280;58760;48.716;8.962;2024-01-30T11:34:24;97841.13;;;9.57;100.00
71105;BME280;58760;48.716;8.962;2024-01-30T11:36:58;97846.41;;;10.07;100.00
71105;BME280;58760;48.716;8.962;2024-01-30T11:39:25;97840.31;;;10.16;100.00
71105;BME280;58760;48.716;8.962;2024-01-30T11:41:51;97839.91;;;10.30;100.00
71105;BME280;58760;48.716;8.962;2024-01-30T11:44:18;97835.72;;;10.46;100.00
71105;BME280;58760;48.716;8.962;2024-01-30T11:46:43;97844.38;;;10.58;100.00
71105;BME280;58760;48.716;8.962;2024-01-30T11:49:09;97836.81;;;10.63;100.00
71105;BME280;58760;48.716;8.962;2024-01-30T11:51:34;97837.81;;;10.72;100.00
71105;BME280;58760;48.716;8.962;2024-01-30T11:54:00;97834.44;;;10.70;100.00
71105;BME280;58760;48.716;8.962;2024-01-30T11:56:25;97819.47;;;10.88;100.00
71105;BME280;58760;48.716;8.962;2024-01-30T11:58:52;97813.16;;;10.98;100.00
71105;BME280;58760;48.716;8.962;2024-01-30T12:01:17;97807.41;;;11.03;100.00
71105;BME280;58760;48.716;8.962;2024-01-30T12:03:49;97806.97;;;11.08;100.00
71105;BME280;58760;48.716;8.962;2024-01-30T12:06:16;97808.22;;;11.13;100.00
71105;BME280;58760;48.716;8.962;2024-01-30T12:08:41;97804.63;;;11.32;100.00
71105;BME280;58760;48.716;8.962;2024-01-30T12:11:07;97794.84;;;11.32;100.00
71105;BME280;58760;48.716;8.962;2024-01-30T12:13:32;97793.91;;;11.51;100.00
71105;BME280;58760;48.716;8.962;2024-01-30T12:15:58;97786.06;;;11.86;100.00
71105;BME280;58760;48.716;8.962;2024-01-30T12:18:24;97777.00;;;11.97;100.00
71105;BME280;58760;48.716;8.962;2024-01-30T12:21:07;97779.16;;;12.11;100.00
71105;BME280;58760;48.716;8.962;2024-01-30T12:23:34;97770.09;;;12.83;100.00
71105;BME280;58760;48.716;8.962;2024-01-30T12:26:01;97759.19;;;13.53;100.00
71105;BME280;58760;48.716;8.962;2024-01-30T12:28:27;97745.41;;;13.82;100.00
71105;BME280;58760;48.716;8.962;2024-01-30T12:30:56;97743.91;;;13.80;100.00
71105;BME280;58760;48.716;8.962;2024-01-30T12:33:26;97758.16;;;13.46;100.00
71105;BME280;58760;48.716;8.962;2024-01-30T12:35:53;97757.63;;;13.43;100.00
71105;BME280;58760;48.716;8.962;2024-01-30T12:38:19;97760.66;;;14.06;100.00
71105;BME280;58760;48.716;8.962;2024-01-30T12:40:44;97740.22;;;15.26;100.00
71105;BME280;58760;48.716;8.962;2024-01-30T12:43:10;97745.16;;;15.45;100.00
71105;BME280;58760;48.716;8.962;2024-01-30T12:45:36;97739.72;;;16.23;100.00
71105;BME280;58760;48.716;8.962;2024-01-30T12:48:01;97725.63;;;16.89;100.00
71105;BME280;58760;48.716;8.962;2024-01-30T12:50:27;97722.31;;;20.31;100.00
71105;BME280;58760;48.716;8.962;2024-01-30T12:52:52;97709.25;;;21.84;100.00